Time;durP1;ratioP1;P1;durP2;ratioP2;P2;SDS_P1;SDS_P2;PMS_P1;PMS_P2;Temp;Humidity;BMP_temperature;BMP_pressure;BME280_temperature;BME280_humidity;BME280_pressure;Samples;Min_cycle;Max_cycle;Signal;HPM_P1;HPM_P2
2022/10/14 00:01:23;;;;;;;1.90;0.73;;;;;;;;;;5082618;28;20060;-93
2022/10/14 00:03:52;;;;;;;0.50;0.40;;;;;;;;;;5072182;28;20049;-93
2022/10/14 00:06:21;;;;;;;2.40;0.77;;;;;;;;;;5065798;28;20135;-91
2022/10/14 00:08:50;;;;;;;2.08;0.82;;;;;;;;;;5057323;28;20100;-93
2022/10/14 00:11:19;;;;;;;1.58;0.70;;;;;;;;;;5061540;28;20372;-93
2022/10/14 00:13:48;;;;;;;0.77;0.57;;;;;;;;;;5072344;28;20052;-92
2022/10/14 00:16:16;;;;;;;0.60;0.50;;;;;;;;;;5060510;28;20144;-93
2022/10/14 00:18:46;;;;;;;1.35;0.50;;;;;;;;;;5071067;28;20504;-93
2022/10/14 00:21:15;;;;;;;1.52;1.13;;;;;;;;;;5055809;28;20048;-93
2022/10/14 00:23:43;;;;;;;0.50;0.40;;;;;;;;;;5069535;28;20049;-92
2022/10/14 00:26:16;;;;;;;2.08;0.85;;;;;;;;;;5067127;28;20051;-93
2022/10/14 00:28:44;;;;;;;1.55;0.65;;;;;;;;;;5068498;28;20436;-93
2022/10/14 00:31:13;;;;;;;1.33;1.08;;;;;;;;;;5060036;28;20059;-93
2022/10/14 00:33:41;;;;;;;0.45;0.45;;;;;;;;;;5059701;28;20037;-93
2022/10/14 00:36:11;;;;;;;0.80;0.52;;;;;;;;;;5071567;28;20045;-93
2022/10/14 00:38:39;;;;;;;0.40;0.40;;;;;;;;;;5064138;28;20053;-92
2022/10/14 00:41:08;;;;;;;1.95;1.15;;;;;;;;;;5061352;28;20048;-92
2022/10/14 00:43:51;;;;;;;2.47;0.60;;;;;;;;;;5070978;28;20053;-93
2022/10/14 00:46:19;;;;;;;0.70;0.47;;;;;;;;;;5061518;28;20045;-93
2022/10/14 00:48:48;;;;;;;1.23;0.60;;;;;;;;;;5066982;28;20055;-93
2022/10/14 00:51:18;;;;;;;0.88;0.60;;;;;;;;;;5064908;28;20072;-92
2022/10/14 00:53:47;;;;;;;6.55;0.85;;;;;;;;;;5064299;28;20098;-92
2022/10/14 00:56:16;;;;;;;0.52;0.45;;;;;;;;;;5061597;28;20045;-92
2022/10/14 00:58:45;;;;;;;1.85;0.60;;;;;;;;;;5065165;28;20055;-91
2022/10/14 01:01:13;;;;;;;0.70;0.40;;;;;;;;;;5060833;28;20056;-91
2022/10/14 01:03:42;;;;;;;0.47;0.40;;;;;;;;;;5072302;28;20041;-92
2022/10/14 01:06:15;;;;;;;0.80;0.50;;;;;;;;;;5070605;28;20488;-90
2022/10/14 01:08:48;;;;;;;0.75;0.60;;;;;;;;;;5070099;28;20052;-91
2022/10/14 01:11:19;;;;;;;0.60;0.47;;;;;;;;;;5066516;28;20060;-92
2022/10/14 01:13:51;;;;;;;0.82;0.70;;;;;;;;;;5063628;28;20553;-92
2022/10/14 01:16:23;;;;;;;0.40;0.20;;;;;;;;;;5061415;28;20507;-92
2022/10/14 01:18:58;;;;;;;1.10;0.65;;;;;;;;;;5071702;28;20044;-92
2022/10/14 01:21:29;;;;;;;0.52;0.52;;;;;;;;;;5063683;28;20048;-92
2022/10/14 01:24:12;;;;;;;4.78;0.40;;;;;;;;;;5067504;28;20040;-92
2022/10/14 01:26:48;;;;;;;0.57;0.40;;;;;;;;;;5068739;28;20051;-92
2022/10/14 01:29:27;;;;;;;0.55;0.45;;;;;;;;;;5063762;28;20053;-91
2022/10/14 01:32:00;;;;;;;1.05;0.63;;;;;;;;;;5067074;28;20133;-93
2022/10/14 01:34:32;;;;;;;0.93;0.55;;;;;;;;;;5069245;28;20048;-92
2022/10/14 01:37:02;;;;;;;1.67;0.60;;;;;;;;;;5067942;28;20056;-93
2022/10/14 01:39:33;;;;;;;0.63;0.35;;;;;;;;;;5060910;28;20056;-93
2022/10/14 01:42:04;;;;;;;1.08;0.43;;;;;;;;;;5061438;28;20064;-93
2022/10/14 01:44:33;;;;;;;1.38;0.65;;;;;;;;;;5072514;28;20049;-93
2022/10/14 01:47:02;;;;;;;0.57;0.38;;;;;;;;;;5071001;28;20056;-93
2022/10/14 01:49:33;;;;;;;1.20;0.40;;;;;;;;;;5068315;28;20040;-93
2022/10/14 01:52:04;;;;;;;0.40;0.40;;;;;;;;;;5069459;28;20048;-93
2022/10/14 01:54:34;;;;;;;2.13;0.70;;;;;;;;;;5064962;28;20040;-92
2022/10/14 01:57:04;;;;;;;4.13;0.60;;;;;;;;;;5068785;28;20040;-92
2022/10/14 01:59:34;;;;;;;0.90;0.28;;;;;;;;;;5071680;28;20049;-92
2022/10/14 02:02:04;;;;;;;0.15;0.15;;;;;;;;;;5070991;28;20047;-92
2022/10/14 02:04:32;;;;;;;0.85;0.40;;;;;;;;;;5071878;28;20070;-93
2022/10/14 02:07:05;;;;;;;0.85;0.60;;;;;;;;;;5067160;28;20052;-93
2022/10/14 02:09:38;;;;;;;0.25;0.25;;;;;;;;;;5067624;28;20049;-91
2022/10/14 02:12:12;;;;;;;0.88;0.52;;;;;;;;;;5070058;28;20059;-93
2022/10/14 02:14:44;;;;;;;0.40;0.40;;;;;;;;;;5064276;28;20045;-93
2022/10/14 02:17:18;;;;;;;0.73;0.47;;;;;;;;;;5072440;28;20059;-93
2022/10/14 02:19:50;;;;;;;0.60;0.40;;;;;;;;;;5069993;28;20486;-92
2022/10/14 02:22:24;;;;;;;1.08;0.40;;;;;;;;;;5068424;28;20071;-93
2022/10/14 02:24:54;;;;;;;2.42;0.60;;;;;;;;;;5060205;28;20052;-93
2022/10/14 02:27:25;;;;;;;0.10;0.10;;;;;;;;;;5065873;28;20044;-93
2022/10/14 02:29:54;;;;;;;0.85;0.30;;;;;;;;;;5070177;28;20049;-92
2022/10/14 02:32:25;;;;;;;0.70;0.40;;;;;;;;;;5071379;28;20045;-91
2022/10/14 02:34:55;;;;;;;0.30;0.30;;;;;;;;;;5069753;28;20041;-92
2022/10/14 02:37:24;;;;;;;0.20;0.13;;;;;;;;;;5070465;28;20449;-92
2022/10/14 02:39:55;;;;;;;0.70;0.20;;;;;;;;;;5066987;28;20048;-92
2022/10/14 02:42:23;;;;;;;3.40;1.00;;;;;;;;;;5064473;28;20408;-92
2022/10/14 02:44:52;;;;;;;0.85;0.80;;;;;;;;;;5064819;28;20041;-93
2022/10/14 02:47:21;;;;;;;1.23;0.40;;;;;;;;;;5061530;28;20059;-92
2022/10/14 02:49:51;;;;;;;0.20;0.20;;;;;;;;;;5070897;28;20056;-91
2022/10/14 02:52:20;;;;;;;0.20;0.20;;;;;;;;;;5067193;28;20040;-90
2022/10/14 02:54:48;;;;;;;2.13;0.90;;;;;;;;;;5063604;28;20041;-92
2022/10/14 02:57:17;;;;;;;3.90;1.73;;;;;;;;;;5062059;28;20052;-90
2022/10/14 02:59:45;;;;;;;0.22;0.10;;;;;;;;;;5067119;28;20502;-91
2022/10/14 03:02:13;;;;;;;0.63;0.30;;;;;;;;;;5069868;28;20056;-92
2022/10/14 03:04:42;;;;;;;1.02;0.57;;;;;;;;;;5071422;28;20052;-91
2022/10/14 03:07:11;;;;;;;0.38;0.20;;;;;;;;;;5068388;28;20044;-91
2022/10/14 03:09:40;;;;;;;0.38;0.32;;;;;;;;;;5062557;28;20098;-91
2022/10/14 03:12:08;;;;;;;2.05;0.60;;;;;;;;;;5060018;28;20044;-90
2022/10/14 03:14:37;;;;;;;4.30;0.35;;;;;;;;;;5068816;28;20044;-91
2022/10/14 03:17:05;;;;;;;1.20;0.50;;;;;;;;;;5069944;28;20060;-90
2022/10/14 03:19:33;;;;;;;0.38;0.30;;;;;;;;;;5063290;28;20465;-90
2022/10/14 03:22:01;;;;;;;0.30;0.20;;;;;;;;;;5067089;28;20052;-92
2022/10/14 03:24:31;;;;;;;0.50;0.38;;;;;;;;;;5069982;28;20037;-90
2022/10/14 03:26:59;;;;;;;0.40;0.20;;;;;;;;;;5062284;28;20045;-92
2022/10/14 03:29:28;;;;;;;0.13;0.13;;;;;;;;;;5065219;28;20053;-91
2022/10/14 03:31:56;;;;;;;0.45;0.43;;;;;;;;;;5063171;28;20048;-91
2022/10/14 03:34:24;;;;;;;1.95;0.52;;;;;;;;;;5065163;28;20048;-90
2022/10/14 03:36:52;;;;;;;0.57;0.40;;;;;;;;;;5065013;28;20044;-92
2022/10/14 03:39:21;;;;;;;0.80;0.65;;;;;;;;;;5070845;28;20045;-92
2022/10/14 03:41:50;;;;;;;0.03;0.03;;;;;;;;;;5066198;28;20063;-92
2022/10/14 03:44:19;;;;;;;1.67;0.17;;;;;;;;;;5068896;28;20067;-91
2022/10/14 03:46:47;;;;;;;2.30;0.52;;;;;;;;;;5068289;28;20048;-91
2022/10/14 03:49:15;;;;;;;0.30;0.20;;;;;;;;;;5070769;28;20056;-91
2022/10/14 03:51:44;;;;;;;0.20;0.10;;;;;;;;;;5066266;28;20411;-90
2022/10/14 03:54:12;;;;;;;2.08;0.40;;;;;;;;;;5064342;28;20505;-89
2022/10/14 03:56:40;;;;;;;0.40;0.40;;;;;;;;;;5066270;28;20055;-91
2022/10/14 03:59:10;;;;;;;1.92;0.50;;;;;;;;;;5069527;28;20053;-91
2022/10/14 04:01:38;;;;;;;2.08;0.73;;;;;;;;;;5066064;28;20316;-90
2022/10/14 04:04:06;;;;;;;1.20;0.50;;;;;;;;;;5071105;28;20050;-91
2022/10/14 04:06:35;;;;;;;0.30;0.30;;;;;;;;;;5067078;28;20045;-91
2022/10/14 04:09:03;;;;;;;0.32;0.25;;;;;;;;;;5067091;28;20041;-90
2022/10/14 04:11:32;;;;;;;1.58;0.60;;;;;;;;;;5065640;28;20045;-91
2022/10/14 04:14:00;;;;;;;0.30;0.30;;;;;;;;;;5059220;28;20095;-90
2022/10/14 04:16:30;;;;;;;1.25;0.73;;;;;;;;;;5061088;28;20044;-91
2022/10/14 04:18:58;;;;;;;1.90;0.65;;;;;;;;;;5065754;28;20059;-90
2022/10/14 04:21:27;;;;;;;0.65;0.38;;;;;;;;;;5066436;28;20041;-92
2022/10/14 04:23:55;;;;;;;1.80;0.60;;;;;;;;;;5070352;28;20041;-91
2022/10/14 04:26:23;;;;;;;1.20;0.45;;;;;;;;;;5067206;28;20056;-91
2022/10/14 04:28:51;;;;;;;1.33;0.88;;;;;;;;;;5068104;28;20106;-91
2022/10/14 04:31:21;;;;;;;2.33;0.75;;;;;;;;;;5062964;28;20135;-91
2022/10/14 04:33:51;;;;;;;1.10;0.43;;;;;;;;;;5066767;28;20106;-91
2022/10/14 04:36:19;;;;;;;1.52;0.35;;;;;;;;;;5071984;28;20446;-91
2022/10/14 04:38:47;;;;;;;0.77;0.63;;;;;;;;;;5070250;28;20056;-91
2022/10/14 04:41:16;;;;;;;1.17;0.50;;;;;;;;;;5061590;28;20052;-91
2022/10/14 04:43:44;;;;;;;1.65;0.57;;;;;;;;;;5059219;28;20060;-91
2022/10/14 04:46:12;;;;;;;1.95;1.00;;;;;;;;;;5067430;28;20048;-91
2022/10/14 04:48:40;;;;;;;1.15;0.40;;;;;;;;;;5070658;28;20040;-91
2022/10/14 04:51:10;;;;;;;0.25;0.25;;;;;;;;;;5068649;28;20055;-90
2022/10/14 04:53:39;;;;;;;1.58;0.52;;;;;;;;;;5068126;28;20043;-91
2022/10/14 04:56:07;;;;;;;0.70;0.38;;;;;;;;;;5060239;28;20051;-90
2022/10/14 04:58:35;;;;;;;0.88;0.40;;;;;;;;;;5061133;28;20060;-86
2022/10/14 05:01:04;;;;;;;0.40;0.40;;;;;;;;;;5063735;28;20146;-85
2022/10/14 05:03:32;;;;;;;0.40;0.30;;;;;;;;;;5073694;28;20044;-86
2022/10/14 05:06:00;;;;;;;1.60;0.55;;;;;;;;;;5067440;28;21374;-86
2022/10/14 05:08:30;;;;;;;5.28;0.65;;;;;;;;;;5064327;28;20048;-87
2022/10/14 05:10:59;;;;;;;0.85;0.32;;;;;;;;;;5062945;28;20051;-87
2022/10/14 05:13:27;;;;;;;0.90;0.50;;;;;;;;;;5069900;28;20497;-88
2022/10/14 05:15:55;;;;;;;1.85;0.65;;;;;;;;;;5070747;28;20510;-87
2022/10/14 05:18:23;;;;;;;0.65;0.38;;;;;;;;;;5070594;28;20492;-88
2022/10/14 05:20:52;;;;;;;2.53;0.70;;;;;;;;;;5068184;28;20052;-88
2022/10/14 05:23:20;;;;;;;0.47;0.40;;;;;;;;;;5068224;28;20056;-86
2022/10/14 05:25:50;;;;;;;0.50;0.40;;;;;;;;;;5063325;28;20045;-84
2022/10/14 05:28:19;;;;;;;1.65;0.47;;;;;;;;;;5058418;28;20496;-84
2022/10/14 05:30:47;;;;;;;7.03;0.30;;;;;;;;;;5059770;28;20049;-84
2022/10/14 05:33:15;;;;;;;2.30;0.50;;;;;;;;;;5060117;28;20048;-84
2022/10/14 05:35:44;;;;;;;0.80;0.52;;;;;;;;;;5062115;28;20055;-84
2022/10/14 05:38:26;;;;;;;1.45;0.57;;;;;;;;;;5075245;28;20054;-84
2022/10/14 05:40:56;;;;;;;0.73;0.73;;;;;;;;;;5065590;28;20048;-85
2022/10/14 05:43:25;;;;;;;0.68;0.50;;;;;;;;;;5068889;28;20063;-84
2022/10/14 05:45:59;;;;;;;2.13;0.55;;;;;;;;;;5069386;28;20040;-84
2022/10/14 05:48:28;;;;;;;3.10;0.60;;;;;;;;;;5059748;28;20702;-85
2022/10/14 05:51:00;;;;;;;0.20;0.10;;;;;;;;;;5067577;28;20108;-85
2022/10/14 05:53:28;;;;;;;0.60;0.30;;;;;;;;;;5069045;28;20040;-84
2022/10/14 05:56:03;;;;;;;0.75;0.38;;;;;;;;;;5068578;28;20071;-85
2022/10/14 05:58:31;;;;;;;0.57;0.50;;;;;;;;;;5062540;28;20075;-84
2022/10/14 06:01:00;;;;;;;0.75;0.40;;;;;;;;;;5066396;28;20056;-85
2022/10/14 06:03:28;;;;;;;1.50;0.43;;;;;;;;;;5067279;28;20060;-84
2022/10/14 06:05:57;;;;;;;0.73;0.47;;;;;;;;;;5067549;28;20055;-84
2022/10/14 06:08:26;;;;;;;1.08;0.25;;;;;;;;;;5070003;28;20052;-85
2022/10/14 06:10:54;;;;;;;0.50;0.25;;;;;;;;;;5063066;28;20067;-85
2022/10/14 06:13:24;;;;;;;1.00;0.47;;;;;;;;;;5064900;28;20057;-84
2022/10/14 06:15:53;;;;;;;1.85;0.82;;;;;;;;;;5063804;28;20506;-85
2022/10/14 06:18:21;;;;;;;0.55;0.28;;;;;;;;;;5082075;28;20415;-85
2022/10/14 06:20:53;;;;;;;0.28;0.28;;;;;;;;;;5073269;28;20608;-85
2022/10/14 06:23:21;;;;;;;0.95;0.35;;;;;;;;;;5073391;28;20256;-85
2022/10/14 06:25:50;;;;;;;0.80;0.35;;;;;;;;;;5080763;28;20049;-85
2022/10/14 06:28:18;;;;;;;0.68;0.60;;;;;;;;;;5070931;28;20048;-85
2022/10/14 06:30:51;;;;;;;2.42;0.52;;;;;;;;;;5061738;28;20121;-85
2022/10/14 06:33:19;;;;;;;13.15;0.65;;;;;;;;;;5073326;28;20047;-85
2022/10/14 06:35:48;;;;;;;0.30;0.30;;;;;;;;;;5068395;28;20044;-85
2022/10/14 06:38:17;;;;;;;0.30;0.30;;;;;;;;;;5076800;28;20051;-85
2022/10/14 06:40:45;;;;;;;0.20;0.20;;;;;;;;;;5066323;28;20476;-85
2022/10/14 06:43:13;;;;;;;0.90;0.50;;;;;;;;;;5070075;28;20063;-83
2022/10/14 06:45:42;;;;;;;1.85;1.00;;;;;;;;;;5073728;28;20520;-85
2022/10/14 06:48:12;;;;;;;0.20;0.20;;;;;;;;;;5076102;28;20487;-85
2022/10/14 06:50:40;;;;;;;0.52;0.40;;;;;;;;;;5071238;28;20060;-85
2022/10/14 06:53:08;;;;;;;0.77;0.52;;;;;;;;;;5066915;28;20044;-85
2022/10/14 06:55:37;;;;;;;0.40;0.40;;;;;;;;;;5067622;28;20052;-85
2022/10/14 06:58:05;;;;;;;1.13;0.40;;;;;;;;;;5059726;28;20049;-85
2022/10/14 07:00:33;;;;;;;0.40;0.38;;;;;;;;;;5071670;28;20055;-85
2022/10/14 07:03:02;;;;;;;0.40;0.30;;;;;;;;;;5075667;28;20574;-85
2022/10/14 07:05:32;;;;;;;1.02;0.30;;;;;;;;;;5066520;28;20043;-85
2022/10/14 07:08:00;;;;;;;0.25;0.25;;;;;;;;;;5072190;28;20040;-85
2022/10/14 07:10:33;;;;;;;1.40;0.60;;;;;;;;;;5064132;28;20507;-86
2022/10/14 07:13:02;;;;;;;2.38;0.93;;;;;;;;;;5074216;28;20503;-84
2022/10/14 07:15:30;;;;;;;3.63;0.70;;;;;;;;;;5070958;28;20080;-85
2022/10/14 07:18:04;;;;;;;0.95;0.80;;;;;;;;;;5071226;28;20090;-85
2022/10/14 07:20:35;;;;;;;0.30;0.25;;;;;;;;;;5070777;28;20049;-85
2022/10/14 07:23:03;;;;;;;1.95;0.93;;;;;;;;;;5065507;28;20044;-85
2022/10/14 07:25:31;;;;;;;7.30;1.38;;;;;;;;;;5067472;28;20113;-85
2022/10/14 07:28:00;;;;;;;0.30;0.30;;;;;;;;;;5063518;28;20049;-85
2022/10/14 07:30:28;;;;;;;1.98;0.35;;;;;;;;;;5064480;28;20052;-85
2022/10/14 07:32:57;;;;;;;1.85;0.52;;;;;;;;;;5071341;28;20052;-86
2022/10/14 07:35:25;;;;;;;1.55;0.75;;;;;;;;;;5083858;28;20134;-87
2022/10/14 07:37:55;;;;;;;0.20;0.20;;;;;;;;;;5073328;28;20036;-86
2022/10/14 07:40:24;;;;;;;0.52;0.40;;;;;;;;;;5070561;28;20083;-85
2022/10/14 07:42:53;;;;;;;2.53;1.25;;;;;;;;;;5060245;28;20044;-86
2022/10/14 07:45:21;;;;;;;1.45;0.93;;;;;;;;;;5040550;28;20041;-86
2022/10/14 07:47:51;;;;;;;0.35;0.30;;;;;;;;;;5046634;28;20076;-85
2022/10/14 07:50:19;;;;;;;0.25;0.17;;;;;;;;;;5046392;28;20049;-86
2022/10/14 07:52:47;;;;;;;1.45;0.40;;;;;;;;;;5034044;28;20052;-85
2022/10/14 07:55:17;;;;;;;2.20;0.77;;;;;;;;;;5048503;28;20523;-87
2022/10/14 07:57:46;;;;;;;0.70;0.43;;;;;;;;;;5043927;28;20444;-86
2022/10/14 08:00:14;;;;;;;0.47;0.45;;;;;;;;;;5047700;28;20084;-86
2022/10/14 08:02:43;;;;;;;1.27;0.75;;;;;;;;;;5035985;28;20052;-86
2022/10/14 08:05:11;;;;;;;0.30;0.30;;;;;;;;;;5046470;28;20072;-85
2022/10/14 08:08:00;;;;;;;1.67;0.77;;;;;;;;;;5044389;28;20044;-83
2022/10/14 08:10:31;;;;;;;0.82;0.45;;;;;;;;;;5058803;28;20059;-83
2022/10/14 08:12:59;;;;;;;0.75;0.32;;;;;;;;;;5046177;28;20079;-82
2022/10/14 08:15:29;;;;;;;0.30;0.30;;;;;;;;;;5044649;28;20049;-83
2022/10/14 08:17:57;;;;;;;0.73;0.40;;;;;;;;;;5058227;28;20049;-83
2022/10/14 08:20:26;;;;;;;1.48;0.45;;;;;;;;;;5048995;28;20052;-83
2022/10/14 08:22:55;;;;;;;1.20;0.68;;;;;;;;;;5050501;28;20131;-82
2022/10/14 08:25:23;;;;;;;3.28;0.50;;;;;;;;;;5042203;28;20053;-82
2022/10/14 08:27:53;;;;;;;0.57;0.30;;;;;;;;;;5043186;28;20055;-83
2022/10/14 08:30:22;;;;;;;0.20;0.20;;;;;;;;;;5045471;28;20075;-83
2022/10/14 08:32:50;;;;;;;2.65;0.50;;;;;;;;;;5042768;28;20155;-83
2022/10/14 08:35:19;;;;;;;0.32;0.22;;;;;;;;;;5045595;28;20057;-83
2022/10/14 08:37:55;;;;;;;0.50;0.30;;;;;;;;;;5044362;28;20052;-83
2022/10/14 08:40:24;;;;;;;0.40;0.40;;;;;;;;;;5042572;28;20511;-83
2022/10/14 08:43:00;;;;;;;1.33;0.80;;;;;;;;;;5060067;28;20079;-83
2022/10/14 08:45:32;;;;;;;0.10;0.10;;;;;;;;;;5073522;28;20041;-82
2022/10/14 08:48:03;;;;;;;1.85;0.52;;;;;;;;;;5071927;28;20049;-82
2022/10/14 08:50:34;;;;;;;0.25;0.25;;;;;;;;;;5067010;28;20048;-82
2022/10/14 08:53:05;;;;;;;0.45;0.30;;;;;;;;;;5079342;28;20043;-82
2022/10/14 08:55:34;;;;;;;0.20;0.20;;;;;;;;;;5064026;28;20037;-78
2022/10/14 08:58:08;;;;;;;4.40;0.95;;;;;;;;;;5066763;28;20045;-77
2022/10/14 09:00:41;;;;;;;0.25;0.15;;;;;;;;;;5058932;28;20052;-78
2022/10/14 09:03:15;;;;;;;0.28;0.28;;;;;;;;;;5071013;28;20441;-78
2022/10/14 09:05:44;;;;;;;1.30;0.40;;;;;;;;;;5068349;28;20054;-78
2022/10/14 09:08:16;;;;;;;0.57;0.20;;;;;;;;;;5066064;28;20053;-78
2022/10/14 09:10:45;;;;;;;0.43;0.20;;;;;;;;;;5062915;28;20102;-78
2022/10/14 09:13:18;;;;;;;0.57;0.32;;;;;;;;;;5071247;28;20051;-78
2022/10/14 09:15:48;;;;;;;0.30;0.20;;;;;;;;;;5072284;28;20458;-78
2022/10/14 09:18:22;;;;;;;1.30;0.30;;;;;;;;;;5076608;28;20127;-78
2022/10/14 09:20:50;;;;;;;0.10;0.10;;;;;;;;;;5070237;28;20044;-78
2022/10/14 09:23:20;;;;;;;0.13;0.13;;;;;;;;;;5074862;28;20049;-78
2022/10/14 09:25:52;;;;;;;1.42;0.40;;;;;;;;;;5062397;28;20147;-78
2022/10/14 09:28:23;;;;;;;0.98;0.35;;;;;;;;;;5072772;28;20052;-77
2022/10/14 09:30:52;;;;;;;0.68;0.40;;;;;;;;;;5069983;28;20058;-78
2022/10/14 09:33:20;;;;;;;0.25;0.20;;;;;;;;;;5068227;28;20530;-78
2022/10/14 09:35:49;;;;;;;0.30;0.30;;;;;;;;;;5072671;28;20051;-78
2022/10/14 09:38:18;;;;;;;2.95;0.35;;;;;;;;;;5070963;28;20404;-78
2022/10/14 09:40:48;;;;;;;0.35;0.25;;;;;;;;;;5071059;28;20037;-78
2022/10/14 09:43:18;;;;;;;0.47;0.20;;;;;;;;;;5067386;28;20067;-77
2022/10/14 09:45:50;;;;;;;1.75;0.28;;;;;;;;;;5051138;28;20045;-78
2022/10/14 09:48:21;;;;;;;0.47;0.38;;;;;;;;;;5044631;28;20049;-78
2022/10/14 09:50:51;;;;;;;1.27;0.17;;;;;;;;;;5044483;28;20049;-78
2022/10/14 09:53:25;;;;;;;4.38;0.20;;;;;;;;;;5040559;28;20045;-78
2022/10/14 09:55:54;;;;;;;0.20;0.20;;;;;;;;;;5036086;28;20055;-78
2022/10/14 09:58:27;;;;;;;1.75;0.28;;;;;;;;;;5040860;28;20057;-78
2022/10/14 10:00:58;;;;;;;0.20;0.10;;;;;;;;;;5044640;28;20176;-78
2022/10/14 10:03:27;;;;;;;0.10;0.10;;;;;;;;;;5035036;28;20056;-79
2022/10/14 10:06:07;;;;;;;0.20;0.20;;;;;;;;;;5049824;28;20099;-79
2022/10/14 10:08:36;;;;;;;0.60;0.20;;;;;;;;;;5047061;28;20037;-78
2022/10/14 10:11:07;;;;;;;0.30;0.25;;;;;;;;;;5042073;28;20501;-78
2022/10/14 10:13:39;;;;;;;0.20;0.20;;;;;;;;;;5039205;28;20045;-79
2022/10/14 10:16:18;;;;;;;0.17;0.10;;;;;;;;;;5049195;28;20157;-78
2022/10/14 10:18:47;;;;;;;0.10;0.10;;;;;;;;;;5049986;28;20049;-78
2022/10/14 10:21:18;;;;;;;0.55;0.55;;;;;;;;;;5039999;28;20044;-78
2022/10/14 10:23:51;;;;;;;0.45;0.10;;;;;;;;;;5048045;28;20817;-78
2022/10/14 10:26:24;;;;;;;0.10;0.10;;;;;;;;;;5040302;28;20056;-78
2022/10/14 10:28:55;;;;;;;0.17;0.10;;;;;;;;;;5039038;28;20057;-78
2022/10/14 10:31:39;;;;;;;0.43;0.10;;;;;;;;;;5056571;28;20076;-78
2022/10/14 10:34:19;;;;;;;0.28;0.13;;;;;;;;;;5047609;28;20139;-78
2022/10/14 10:36:52;;;;;;;0.80;0.20;;;;;;;;;;5044571;28;20440;-78
2022/10/14 10:39:24;;;;;;;0.73;0.35;;;;;;;;;;5046360;28;20056;-78
2022/10/14 10:41:59;;;;;;;5.57;0.20;;;;;;;;;;5045957;28;20044;-78
2022/10/14 10:44:39;;;;;;;0.15;0.15;;;;;;;;;;5054574;28;20048;-78
2022/10/14 10:47:14;;;;;;;0.40;0.40;;;;;;;;;;5048320;28;20079;-78
2022/10/14 10:49:42;;;;;;;;;;;;;;;;;;5038509;28;20048;-78
2022/10/14 10:52:16;;;;;;;0.55;0.30;;;;;;;;;;5040824;28;19967;-78
2022/10/14 10:54:54;;;;;;;0.10;0.10;;;;;;;;;;5041273;28;20409;-78
2022/10/14 10:57:30;;;;;;;0.55;0.15;;;;;;;;;;5047385;28;20513;-78
2022/10/14 11:00:02;;;;;;;0.30;0.20;;;;;;;;;;5040228;28;20068;-78
2022/10/14 11:02:46;;;;;;;0.55;0.43;;;;;;;;;;5036240;28;20091;-78
2022/10/14 11:05:18;;;;;;;0.57;0.30;;;;;;;;;;5035827;28;20577;-78
2022/10/14 11:13:33;;;;;;;0.28;0.10;;;;;;;;;;5036825;28;20049;-78
2022/10/14 11:16:06;;;;;;;2.65;0.50;;;;;;;;;;5037956;28;20090;-78
2022/10/14 11:18:44;;;;;;;0.20;0.10;;;;;;;;;;5042057;28;20049;-79
2022/10/14 11:21:16;;;;;;;0.30;0.17;;;;;;;;;;5035082;28;20493;-78
2022/10/14 11:23:58;;;;;;;0.55;0.30;;;;;;;;;;5038602;28;20144;-79
2022/10/14 11:26:36;;;;;;;0.32;0.17;;;;;;;;;;5037551;28;20102;-79
2022/10/14 11:29:10;;;;;;;0.20;0.10;;;;;;;;;;5043884;28;20551;-79
2022/10/14 11:31:44;;;;;;;0.20;0.20;;;;;;;;;;5036971;28;20041;-79
2022/10/14 11:34:17;;;;;;;0.38;0.20;;;;;;;;;;5040364;28;20482;-79
2022/10/14 11:36:51;;;;;;;0.03;0.03;;;;;;;;;;5043770;28;20049;-79
2022/10/14 11:39:26;;;;;;;1.45;0.20;;;;;;;;;;5038697;28;20045;-79
2022/10/14 11:42:03;;;;;;;0.17;0.17;;;;;;;;;;5047977;28;20539;-79
2022/10/14 11:44:35;;;;;;;1.85;0.45;;;;;;;;;;5048701;28;20059;-79
2022/10/14 11:47:04;;;;;;;0.22;0.20;;;;;;;;;;5048817;28;20045;-79
2022/10/14 11:49:35;;;;;;;0.00;0.00;;;;;;;;;;5045529;28;20124;-79
2022/10/14 11:52:06;;;;;;;0.20;0.20;;;;;;;;;;5039311;28;20409;-79
2022/10/14 11:54:38;;;;;;;0.40;0.10;;;;;;;;;;5043814;28;21663;-79
2022/10/14 11:57:11;;;;;;;0.20;0.10;;;;;;;;;;5042860;28;20863;-79
2022/10/14 11:59:45;;;;;;;0.20;0.10;;;;;;;;;;5035821;28;20451;-79
2022/10/14 12:02:29;;;;;;;0.20;0.20;;;;;;;;;;5044837;28;20489;-81
2022/10/14 12:05:02;;;;;;;0.95;0.30;;;;;;;;;;5050199;28;20051;-80
2022/10/14 12:07:33;;;;;;;0.10;0.10;;;;;;;;;;5047556;28;20056;-80
2022/10/14 12:10:04;;;;;;;0.22;0.22;;;;;;;;;;5047637;28;20068;-80
2022/10/14 12:12:35;;;;;;;0.52;0.52;;;;;;;;;;5046149;28;20041;-79
2022/10/14 12:15:06;;;;;;;0.05;0.05;;;;;;;;;;5043670;28;20095;-79
2022/10/14 12:17:37;;;;;;;0.43;0.20;;;;;;;;;;5041481;28;20555;-79
2022/10/14 12:20:14;;;;;;;0.43;0.22;;;;;;;;;;5043765;28;21019;-80
2022/10/14 12:22:43;;;;;;;1.00;0.40;;;;;;;;;;5045963;28;20103;-80
2022/10/14 12:25:16;;;;;;;0.75;0.52;;;;;;;;;;5034638;28;20041;-80
2022/10/14 12:27:44;;;;;;;0.22;0.10;;;;;;;;;;5043180;28;20131;-79
2022/10/14 12:30:32;;;;;;;0.20;0.10;;;;;;;;;;5051454;28;20557;-80
2022/10/14 12:33:02;;;;;;;0.15;0.15;;;;;;;;;;5048901;28;20520;-79
2022/10/14 12:35:49;;;;;;;0.20;0.20;;;;;;;;;;5044714;28;20055;-79
2022/10/14 12:38:17;;;;;;;1.65;0.30;;;;;;;;;;5050252;28;20500;-79
2022/10/14 12:40:48;;;;;;;0.28;0.25;;;;;;;;;;5052594;28;20048;-81
2022/10/14 12:43:18;;;;;;;0.20;0.15;;;;;;;;;;5050177;28;20122;-81
2022/10/14 12:45:51;;;;;;;0.10;0.10;;;;;;;;;;5069775;28;20041;-81
2022/10/14 12:48:21;;;;;;;0.88;0.30;;;;;;;;;;5075448;28;20130;-81
2022/10/14 12:50:51;;;;;;;2.00;0.17;;;;;;;;;;5068806;28;20055;-83
2022/10/14 12:53:22;;;;;;;0.03;0.03;;;;;;;;;;5062067;28;20053;-82
2022/10/14 12:55:54;;;;;;;0.20;0.17;;;;;;;;;;5067880;28;20048;-82
2022/10/14 12:58:25;;;;;;;0.43;0.20;;;;;;;;;;5068721;28;20053;-82
2022/10/14 13:00:55;;;;;;;0.10;0.10;;;;;;;;;;5070097;28;20373;-82
2022/10/14 13:03:26;;;;;;;0.60;0.20;;;;;;;;;;5068260;28;20072;-82
2022/10/14 13:06:15;;;;;;;0.20;0.20;;;;;;;;;;5067547;28;20055;-82
2022/10/14 13:09:03;;;;;;;0.40;0.38;;;;;;;;;;5068339;28;20079;-81
2022/10/14 13:11:33;;;;;;;0.15;0.15;;;;;;;;;;5069172;28;20058;-82
2022/10/14 13:14:02;;;;;;;0.20;0.13;;;;;;;;;;5068849;28;20567;-81
2022/10/14 13:16:49;;;;;;;0.20;0.10;;;;;;;;;;5070154;28;20052;-81
2022/10/14 13:19:32;;;;;;;0.10;0.10;;;;;;;;;;5067261;28;20538;-81
2022/10/14 13:22:02;;;;;;;1.15;0.30;;;;;;;;;;5066468;28;20053;-81
2022/10/14 13:24:34;;;;;;;0.40;0.30;;;;;;;;;;5074241;28;20044;-81
2022/10/14 13:27:08;;;;;;;0.03;0.03;;;;;;;;;;5069870;28;20048;-82
2022/10/14 13:29:45;;;;;;;0.13;0.13;;;;;;;;;;5070356;28;20052;-81
2022/10/14 13:32:22;;;;;;;0.57;0.50;;;;;;;;;;5067996;28;20070;-82
2022/10/14 13:34:58;;;;;;;0.73;0.30;;;;;;;;;;5072907;28;20098;-81
2022/10/14 13:37:31;;;;;;;0.47;0.20;;;;;;;;;;5072016;28;20044;-81
2022/10/14 13:40:07;;;;;;;0.43;0.20;;;;;;;;;;5066721;28;20037;-82
2022/10/14 13:42:39;;;;;;;1.35;0.30;;;;;;;;;;5076306;28;20079;-81
2022/10/14 13:45:10;;;;;;;1.65;0.32;;;;;;;;;;5067569;28;20055;-81
2022/10/14 13:47:41;;;;;;;0.20;0.20;;;;;;;;;;5070842;28;20047;-81
2022/10/14 13:50:12;;;;;;;0.57;0.20;;;;;;;;;;5069782;28;20412;-81
2022/10/14 13:52:41;;;;;;;3.55;0.13;;;;;;;;;;5067549;28;20135;-82
2022/10/14 13:55:14;;;;;;;5.95;0.75;;;;;;;;;;5070799;28;20060;-80
2022/10/14 13:57:43;;;;;;;0.20;0.20;;;;;;;;;;5070011;28;20049;-81
2022/10/14 14:00:33;;;;;;;0.30;0.28;;;;;;;;;;5063743;28;20052;-82
2022/10/14 14:03:18;;;;;;;0.10;0.10;;;;;;;;;;5065047;28;20055;-81
2022/10/14 14:05:46;;;;;;;1.95;0.35;;;;;;;;;;5074086;28;20118;-80
2022/10/14 14:08:21;;;;;;;0.30;0.22;;;;;;;;;;5068244;28;20128;-81
2022/10/14 14:11:08;;;;;;;0.38;0.20;;;;;;;;;;5064078;28;20433;-81
2022/10/14 14:13:49;;;;;;;0.75;0.43;;;;;;;;;;5031171;28;20057;-81
2022/10/14 14:16:28;;;;;;;0.30;0.30;;;;;;;;;;5061731;28;20110;-81
2022/10/14 14:18:56;;;;;;;0.40;0.25;;;;;;;;;;5059185;28;20431;-81
2022/10/14 14:21:38;;;;;;;0.65;0.65;;;;;;;;;;5061586;28;20044;-81
2022/10/14 14:24:15;;;;;;;0.55;0.25;;;;;;;;;;5072232;28;20487;-80
2022/10/14 14:26:44;;;;;;;0.60;0.28;;;;;;;;;;5055485;28;20045;-82
2022/10/14 14:29:18;;;;;;;0.63;0.20;;;;;;;;;;5065016;28;20041;-87
2022/10/14 14:31:47;;;;;;;0.32;0.30;;;;;;;;;;5067273;28;20076;-86
2022/10/14 14:34:35;;;;;;;3.90;0.30;;;;;;;;;;5063013;28;20457;-86
2022/10/14 14:37:03;;;;;;;0.22;0.22;;;;;;;;;;5070695;28;20037;-87
2022/10/14 14:39:59;;;;;;;0.93;0.47;;;;;;;;;;5068771;28;20495;-87
2022/10/14 14:42:29;;;;;;;0.50;0.30;;;;;;;;;;5058565;28;20499;-81
2022/10/14 14:45:00;;;;;;;0.52;0.25;;;;;;;;;;5058649;28;20462;-81
2022/10/14 14:47:29;;;;;;;0.30;0.22;;;;;;;;;;5062828;28;20047;-82
2022/10/14 14:49:58;;;;;;;0.68;0.30;;;;;;;;;;5074182;28;20493;-82
2022/10/14 14:52:48;;;;;;;0.88;0.38;;;;;;;;;;5071776;28;20079;-80
2022/10/14 14:55:36;;;;;;;2.30;0.93;;;;;;;;;;5066738;28;20049;-80
2022/10/14 14:58:06;;;;;;;1.40;0.28;;;;;;;;;;5057880;28;20693;-80
2022/10/14 15:00:35;;;;;;;0.22;0.20;;;;;;;;;;5065709;28;20048;-86
2022/10/14 15:03:04;;;;;;;0.77;0.13;;;;;;;;;;5060181;28;20048;-85
2022/10/14 15:05:34;;;;;;;2.80;0.55;;;;;;;;;;5068948;28;20053;-86
2022/10/14 15:08:03;;;;;;;0.50;0.30;;;;;;;;;;5063493;28;20061;-85
2022/10/14 15:10:32;;;;;;;0.35;0.28;;;;;;;;;;5060483;28;20049;-85
2022/10/14 15:13:00;;;;;;;0.20;0.20;;;;;;;;;;5067394;28;20484;-84